createdAt,value
2023-02-07T00:01:19.209Z,33.90
2023-02-07T00:03:46.667Z,34.00
2023-02-07T00:06:22.972Z,33.80
2023-02-07T00:08:50.410Z,33.90
2023-02-07T00:11:19.971Z,33.80
2023-02-07T00:13:50.181Z,33.90
2023-02-07T00:16:17.398Z,33.80
2023-02-07T00:18:44.107Z,33.90
2023-02-07T00:21:16.546Z,33.90
2023-02-07T00:23:43.838Z,33.90
2023-02-07T00:26:11.994Z,33.80
2023-02-07T00:28:38.903Z,33.80
2023-02-07T00:31:07.984Z,33.80
2023-02-07T00:33:39.869Z,33.90
2023-02-07T00:36:09.006Z,33.80
2023-02-07T00:38:35.877Z,33.80
2023-02-07T00:41:03.122Z,33.80
2023-02-07T00:43:30.526Z,33.90
2023-02-07T00:45:59.470Z,33.80
2023-02-07T00:48:27.639Z,33.80
2023-02-07T00:50:54.696Z,33.80
2023-02-07T00:53:21.557Z,33.80
2023-02-07T00:55:48.175Z,33.80
2023-02-07T00:58:14.850Z,33.80
2023-02-07T01:00:41.897Z,33.80
2023-02-07T01:03:09.018Z,33.80
2023-02-07T01:05:36.169Z,33.80
2023-02-07T01:08:03.073Z,33.80
2023-02-07T01:10:29.734Z,33.80
2023-02-07T01:12:56.313Z,33.80
2023-02-07T01:15:23.433Z,33.80
2023-02-07T01:17:50.356Z,33.80
2023-02-07T01:20:17.121Z,33.80
2023-02-07T01:22:43.757Z,33.80
2023-02-07T01:25:10.764Z,33.80
2023-02-07T01:27:37.589Z,33.80
2023-02-07T01:30:05.394Z,33.80
2023-02-07T01:32:33.441Z,33.80
2023-02-07T01:35:00.183Z,33.80
2023-02-07T01:37:27.416Z,33.80
2023-02-07T01:39:54.834Z,33.70
2023-02-07T01:42:24.231Z,33.70
2023-02-07T01:44:50.738Z,33.70
2023-02-07T01:47:25.936Z,33.70
2023-02-07T01:49:56.366Z,33.80
2023-02-07T01:52:41.198Z,33.70
2023-02-07T01:55:12.971Z,33.70
2023-02-07T01:57:40.299Z,33.80
2023-02-07T02:00:08.607Z,33.70
2023-02-07T02:02:37.670Z,33.70
2023-02-07T02:05:04.754Z,33.70
2023-02-07T02:07:33.255Z,33.70
2023-02-07T02:10:00.874Z,33.80
2023-02-07T02:12:35.979Z,33.80
2023-02-07T02:15:05.323Z,33.70
2023-02-07T02:17:50.849Z,33.80
2023-02-07T02:20:51.732Z,33.70
2023-02-07T02:23:40.090Z,33.60
2023-02-07T02:26:09.650Z,33.80
2023-02-07T02:29:01.903Z,33.80
2023-02-07T02:31:58.199Z,33.80
2023-02-07T02:34:31.535Z,33.70
2023-02-07T02:37:37.245Z,33.80
2023-02-07T02:40:08.168Z,33.70
2023-02-07T02:42:46.272Z,33.70
2023-02-07T02:45:24.034Z,33.70
2023-02-07T02:47:51.711Z,33.70
2023-02-07T02:50:30.397Z,33.80
2023-02-07T02:52:57.404Z,33.80
2023-02-07T02:55:39.294Z,33.70
2023-02-07T02:58:20.113Z,33.80
2023-02-07T03:01:05.930Z,33.70
2023-02-07T03:03:41.689Z,33.80
2023-02-07T03:06:35.762Z,34.00
2023-02-07T03:09:34.423Z,33.80
2023-02-07T03:12:14.839Z,33.70
2023-02-07T03:15:01.961Z,33.70
2023-02-07T03:17:59.450Z,33.70
2023-02-07T03:20:34.077Z,33.70
2023-02-07T03:23:04.458Z,33.70
2023-02-07T03:25:32.134Z,33.80
2023-02-07T03:27:58.928Z,33.80
2023-02-07T03:30:31.940Z,33.80
2023-02-07T03:33:03.298Z,33.80
2023-02-07T03:35:52.870Z,33.70
2023-02-07T03:38:20.008Z,33.70
2023-02-07T03:40:49.011Z,33.70
2023-02-07T03:43:25.246Z,33.80
2023-02-07T03:45:51.811Z,33.70
2023-02-07T03:48:19.024Z,33.80
2023-02-07T03:50:47.536Z,33.80
2023-02-07T03:53:14.120Z,34.30
2023-02-07T03:55:40.877Z,33.70
2023-02-07T03:58:08.458Z,33.80
2023-02-07T04:00:35.659Z,33.80
2023-02-07T04:03:02.893Z,33.70
2023-02-07T04:05:29.698Z,33.70
2023-02-07T04:07:56.350Z,33.80
2023-02-07T04:10:23.066Z,33.70
2023-02-07T04:12:49.700Z,33.80
2023-02-07T04:15:16.326Z,33.80
2023-02-07T04:17:42.889Z,33.80
2023-02-07T04:20:13.925Z,33.70
2023-02-07T04:22:40.523Z,33.80
2023-02-07T04:25:07.283Z,33.70
2023-02-07T04:27:33.893Z,33.80
2023-02-07T04:30:00.508Z,33.80
2023-02-07T04:32:27.147Z,33.70
2023-02-07T04:34:53.733Z,33.70
2023-02-07T04:37:20.352Z,34.20
2023-02-07T04:39:47.005Z,33.80
2023-02-07T04:42:13.660Z,33.80
2023-02-07T04:44:40.237Z,33.70
2023-02-07T04:47:06.790Z,33.80
2023-02-07T04:49:34.628Z,33.80
2023-02-07T04:52:01.540Z,33.70
2023-02-07T04:54:28.100Z,33.70
2023-02-07T04:56:54.705Z,33.70
2023-02-07T04:59:21.287Z,33.70
2023-02-07T05:01:47.942Z,33.80
2023-02-07T05:04:14.558Z,33.80
2023-02-07T05:06:41.246Z,33.90
2023-02-07T05:09:07.810Z,33.90
2023-02-07T05:11:34.448Z,33.90
2023-02-07T05:14:01.031Z,33.90
2023-02-07T05:16:27.662Z,33.90
2023-02-07T05:18:54.266Z,33.90
2023-02-07T05:21:20.885Z,33.90
2023-02-07T05:23:48.808Z,33.90
2023-02-07T05:26:17.058Z,33.90
2023-02-07T05:28:44.029Z,34.00
2023-02-07T05:31:10.764Z,33.90
2023-02-07T05:33:37.458Z,33.90
2023-02-07T05:36:05.000Z,33.80
2023-02-07T05:38:31.637Z,33.70
2023-02-07T05:40:58.252Z,33.70
2023-02-07T05:43:24.833Z,33.70
2023-02-07T05:45:51.502Z,33.70
2023-02-07T05:48:18.925Z,33.60
2023-02-07T05:50:45.487Z,33.70
2023-02-07T05:53:12.902Z,33.60
2023-02-07T05:55:40.098Z,33.50
2023-02-07T05:58:06.889Z,33.50
2023-02-07T06:00:33.728Z,33.40
2023-02-07T06:03:00.330Z,33.40
2023-02-07T06:05:31.424Z,33.50
2023-02-07T06:07:58.182Z,33.50
2023-02-07T06:10:24.791Z,33.40
2023-02-07T06:12:51.374Z,33.50
2023-02-07T06:15:18.016Z,33.40
2023-02-07T06:17:44.610Z,33.40
2023-02-07T06:20:11.695Z,33.40
2023-02-07T06:22:38.305Z,33.40
2023-02-07T06:25:05.253Z,33.40
2023-02-07T06:27:31.831Z,33.40
2023-02-07T06:29:58.397Z,33.30
2023-02-07T06:32:24.978Z,33.30
2023-02-07T06:34:51.529Z,33.30
2023-02-07T06:37:18.121Z,33.30
2023-02-07T06:39:44.917Z,33.30
2023-02-07T06:42:11.538Z,33.20
2023-02-07T06:44:38.098Z,33.20
2023-02-07T06:47:05.344Z,33.30
2023-02-07T06:49:31.928Z,33.20
2023-02-07T06:51:58.496Z,33.10
2023-02-07T06:54:25.154Z,33.20
2023-02-07T06:56:51.762Z,33.20
2023-02-07T06:59:18.524Z,33.20
2023-02-07T07:01:46.325Z,33.20
2023-02-07T07:04:14.346Z,33.10
2023-02-07T07:06:41.321Z,33.10
2023-02-07T07:09:07.979Z,33.10
2023-02-07T07:11:35.356Z,33.10
2023-02-07T07:14:02.628Z,33.10
2023-02-07T07:16:29.274Z,33.10
2023-02-07T07:18:55.913Z,33.00
2023-02-07T07:21:22.467Z,33.00
2023-02-07T07:23:49.163Z,33.00
2023-02-07T07:26:15.767Z,33.00
2023-02-07T07:28:42.348Z,33.00
2023-02-07T07:31:09.344Z,32.90
2023-02-07T07:33:36.512Z,32.90
2023-02-07T07:36:03.469Z,32.90
2023-02-07T07:38:31.014Z,32.90
2023-02-07T07:40:57.763Z,32.80
2023-02-07T07:43:24.343Z,32.80
2023-02-07T07:45:55.557Z,32.80
2023-02-07T07:48:23.384Z,32.20
2023-02-07T07:50:50.270Z,32.00
2023-02-07T07:53:18.257Z,31.90
2023-02-07T07:55:53.077Z,32.00
2023-02-07T07:58:20.876Z,31.90
2023-02-07T08:00:47.983Z,32.00
2023-02-07T08:03:19.323Z,32.10
2023-02-07T08:05:46.590Z,32.20
2023-02-07T08:08:13.300Z,32.20
2023-02-07T08:10:40.742Z,32.40
2023-02-07T08:13:07.597Z,32.40
2023-02-07T08:15:34.175Z,32.50
2023-02-07T08:18:00.749Z,32.60
2023-02-07T08:20:27.376Z,32.60
2023-02-07T08:22:54.016Z,32.70
2023-02-07T08:25:20.603Z,32.90
2023-02-07T08:27:47.186Z,32.80
2023-02-07T08:30:15.154Z,32.80
2023-02-07T08:32:42.223Z,32.80
2023-02-07T08:35:09.730Z,32.90
2023-02-07T08:37:36.937Z,32.90
2023-02-07T08:40:05.077Z,32.90
2023-02-07T08:42:31.785Z,32.90
2023-02-07T08:44:58.402Z,33.00
2023-02-07T08:47:25.243Z,32.90
2023-02-07T08:49:52.067Z,32.90
2023-02-07T08:52:18.713Z,33.10
2023-02-07T08:54:45.318Z,32.90
2023-02-07T08:57:11.906Z,32.90
2023-02-07T08:59:38.500Z,32.80
2023-02-07T09:02:05.126Z,33.40
2023-02-07T09:04:31.757Z,32.60
2023-02-07T09:06:58.403Z,32.60
2023-02-07T09:09:25.134Z,32.70
2023-02-07T09:11:51.839Z,32.90
2023-02-07T09:14:18.716Z,32.80
2023-02-07T09:16:45.737Z,32.80
2023-02-07T09:19:12.415Z,33.00
2023-02-07T09:21:39.011Z,32.90
2023-02-07T09:24:05.757Z,32.90
2023-02-07T09:26:34.348Z,32.80
2023-02-07T09:29:01.605Z,32.70
2023-02-07T09:31:28.345Z,32.70
2023-02-07T09:33:55.082Z,32.70
2023-02-07T09:36:24.745Z,32.70
2023-02-07T09:38:51.962Z,32.70
2023-02-07T09:41:42.187Z,32.70
2023-02-07T09:44:29.116Z,32.50
2023-02-07T09:47:05.307Z,32.50
2023-02-07T09:49:55.937Z,32.40
2023-02-07T09:52:33.955Z,32.40
2023-02-07T09:55:01.553Z,32.10
2023-02-07T09:57:42.930Z,32.20
2023-02-07T10:00:34.271Z,31.70
2023-02-07T10:03:20.709Z,31.60
2023-02-07T10:06:09.238Z,31.80
2023-02-07T10:08:45.431Z,31.90
2023-02-07T10:11:49.395Z,31.00
2023-02-07T10:14:31.091Z,30.40
2023-02-07T10:17:25.822Z,30.00
2023-02-07T10:20:00.115Z,30.00
2023-02-07T10:23:10.531Z,29.90
2023-02-07T10:26:02.580Z,29.70
2023-02-07T10:28:34.754Z,29.90
2023-02-07T10:31:06.866Z,29.60
2023-02-07T10:33:39.739Z,29.50
2023-02-07T10:36:15.676Z,29.30
2023-02-07T10:39:09.548Z,29.40
2023-02-07T10:41:44.152Z,29.10
2023-02-07T10:44:18.927Z,29.10
2023-02-07T10:46:59.104Z,28.90
2023-02-07T10:49:35.779Z,29.00
2023-02-07T10:52:27.422Z,29.20
2023-02-07T10:55:02.134Z,29.00
2023-02-07T10:57:30.632Z,28.90
2023-02-07T10:59:58.805Z,29.00
2023-02-07T11:02:28.214Z,29.20
2023-02-07T11:04:56.670Z,29.00
2023-02-07T11:07:24.790Z,29.10
2023-02-07T11:09:52.151Z,29.20
2023-02-07T11:12:21.962Z,29.10
2023-02-07T11:15:02.074Z,29.30
2023-02-07T11:17:29.158Z,29.10
2023-02-07T11:19:56.215Z,29.30
2023-02-07T11:22:24.814Z,29.30
2023-02-07T11:24:59.699Z,29.30
2023-02-07T11:27:26.562Z,29.30
2023-02-07T11:30:05.577Z,29.40
2023-02-07T11:32:32.353Z,29.20
2023-02-07T11:35:04.421Z,29.40
2023-02-07T11:37:47.539Z,29.40
2023-02-07T11:40:26.729Z,29.40
2023-02-07T11:43:15.888Z,29.40
2023-02-07T11:45:56.449Z,29.40
2023-02-07T11:48:31.805Z,29.40
2023-02-07T11:51:01.176Z,29.40
2023-02-07T11:53:40.929Z,29.50
2023-02-07T11:56:31.091Z,29.40
2023-02-07T11:58:58.659Z,29.30
2023-02-07T12:01:29.576Z,29.40
2023-02-07T12:04:07.314Z,29.40
2023-02-07T12:06:38.073Z,29.30
2023-02-07T12:09:09.846Z,29.40
2023-02-07T12:11:41.471Z,29.40
2023-02-07T12:14:25.960Z,29.40
2023-02-07T12:16:56.078Z,28.70
2023-02-07T12:19:28.054Z,27.90
2023-02-07T12:22:06.786Z,26.70
2023-02-07T12:24:43.194Z,25.80
2023-02-07T12:27:17.024Z,25.30
2023-02-07T12:29:50.002Z,25.40
2023-02-07T12:32:42.653Z,24.80
2023-02-07T12:35:31.522Z,24.40
2023-02-07T12:38:23.549Z,24.30
2023-02-07T12:41:15.063Z,24.20
2023-02-07T12:44:03.629Z,24.00
2023-02-07T12:46:46.938Z,24.20
2023-02-07T12:49:28.319Z,24.70
2023-02-07T12:52:16.562Z,25.10
2023-02-07T12:54:55.981Z,25.50
2023-02-07T12:57:53.131Z,25.70
2023-02-07T13:00:39.274Z,26.20
2023-02-07T13:03:22.477Z,26.20
2023-02-07T13:06:09.474Z,26.30
2023-02-07T13:08:36.105Z,26.60
2023-02-07T13:11:12.797Z,26.80
2023-02-07T13:14:01.168Z,26.90
2023-02-07T13:16:46.438Z,26.90
2023-02-07T13:19:33.937Z,27.10
2023-02-07T13:22:11.904Z,27.00
2023-02-07T13:24:41.510Z,27.20
2023-02-07T13:27:17.415Z,27.30
2023-02-07T13:29:47.314Z,27.20
2023-02-07T13:32:24.276Z,27.30
2023-02-07T13:35:11.235Z,27.20
2023-02-07T13:37:43.463Z,27.20
2023-02-07T13:41:03.738Z,27.40
2023-02-07T13:44:09.376Z,27.50
2023-02-07T13:47:01.772Z,27.50
2023-02-07T13:49:40.192Z,27.60
2023-02-07T13:52:27.707Z,27.60
2023-02-07T13:55:03.733Z,27.70
2023-02-07T13:57:51.962Z,27.60
2023-02-07T14:00:24.997Z,27.60
2023-02-07T14:03:18.999Z,27.60
2023-02-07T14:05:45.702Z,27.70
2023-02-07T14:08:18.597Z,27.80
2023-02-07T14:10:57.650Z,27.70
2023-02-07T14:13:27.041Z,27.80
2023-02-07T14:15:59.246Z,27.80
2023-02-07T14:18:40.249Z,27.80
2023-02-07T14:21:18.757Z,27.80
2023-02-07T14:23:57.353Z,27.90
2023-02-07T14:26:44.893Z,27.90
2023-02-07T14:29:21.012Z,27.90
2023-02-07T14:31:59.190Z,28.00
2023-02-07T14:34:31.452Z,27.80
2023-02-07T14:37:00.242Z,27.90
2023-02-07T14:39:30.839Z,27.90
2023-02-07T14:42:18.406Z,27.90
2023-02-07T14:44:47.962Z,27.90
2023-02-07T14:47:28.146Z,27.90
2023-02-07T14:49:58.987Z,28.00
2023-02-07T14:52:35.775Z,28.20
2023-02-07T14:55:07.475Z,28.10
2023-02-07T14:57:44.140Z,28.10
2023-02-07T15:00:31.900Z,28.10
2023-02-07T15:03:14.266Z,28.10
2023-02-07T15:05:57.046Z,28.00
2023-02-07T15:08:25.676Z,28.60
2023-02-07T15:11:02.356Z,28.00
2023-02-07T15:13:32.407Z,28.00
2023-02-07T15:16:05.733Z,28.00
2023-02-07T15:18:40.039Z,28.00
2023-02-07T15:21:10.677Z,28.10
2023-02-07T15:23:37.269Z,28.10
2023-02-07T15:26:08.665Z,28.20
2023-02-07T15:28:35.772Z,28.20
2023-02-07T15:31:04.174Z,28.20
2023-02-07T15:33:48.080Z,28.20
2023-02-07T15:36:41.771Z,28.20
2023-02-07T15:39:19.708Z,28.20
2023-02-07T15:41:49.261Z,28.30
2023-02-07T15:44:30.851Z,28.30
2023-02-07T15:47:06.205Z,28.30
2023-02-07T15:49:41.658Z,28.30
2023-02-07T15:52:31.771Z,28.40
2023-02-07T15:54:59.863Z,28.40
2023-02-07T15:57:32.474Z,28.30
2023-02-07T16:00:17.446Z,28.30
2023-02-07T16:02:52.346Z,28.30
2023-02-07T16:05:26.501Z,28.30
2023-02-07T16:07:54.177Z,28.20
2023-02-07T16:10:23.541Z,28.30
2023-02-07T16:13:01.465Z,28.20
2023-02-07T16:15:37.948Z,28.30
2023-02-07T16:18:05.982Z,28.30
2023-02-07T16:20:35.951Z,28.40
2023-02-07T16:23:06.550Z,28.30
2023-02-07T16:25:35.008Z,28.40
2023-02-07T16:28:03.822Z,28.40
2023-02-07T16:30:36.860Z,28.40
2023-02-07T16:33:07.734Z,28.40
2023-02-07T16:35:34.631Z,28.40
2023-02-07T16:38:01.322Z,28.50
2023-02-07T16:40:27.932Z,28.50
2023-02-07T16:42:56.139Z,28.50
2023-02-07T16:45:28.208Z,28.50
2023-02-07T16:47:56.580Z,28.60
2023-02-07T16:50:25.754Z,28.60
2023-02-07T16:52:57.533Z,28.60
2023-02-07T16:55:26.344Z,28.60
2023-02-07T16:57:53.386Z,28.60
2023-02-07T17:00:23.171Z,28.70
2023-02-07T17:02:51.292Z,28.60
2023-02-07T17:05:19.380Z,28.50
2023-02-07T17:07:46.542Z,28.50
2023-02-07T17:10:27.549Z,28.50
2023-02-07T17:12:54.298Z,28.50
2023-02-07T17:15:21.398Z,28.60
2023-02-07T17:17:48.049Z,28.60
2023-02-07T17:20:20.725Z,28.60
2023-02-07T17:22:48.751Z,28.70
2023-02-07T17:25:16.321Z,28.70
2023-02-07T17:27:43.116Z,28.70
2023-02-07T17:30:23.018Z,28.70
2023-02-07T17:32:49.765Z,28.80
2023-02-07T17:35:16.459Z,28.80
2023-02-07T17:37:43.423Z,28.80
2023-02-07T17:40:30.539Z,28.90
2023-02-07T17:42:57.989Z,28.90
2023-02-07T17:45:26.326Z,28.90
2023-02-07T17:47:53.770Z,29.10
2023-02-07T17:50:24.781Z,29.10
2023-02-07T17:52:51.518Z,29.30
2023-02-07T17:55:18.188Z,29.20
2023-02-07T17:57:44.816Z,29.20
2023-02-07T18:00:18.722Z,29.30
2023-02-07T18:02:47.500Z,29.30
2023-02-07T18:05:15.292Z,29.40
2023-02-07T18:07:43.024Z,29.30
2023-02-07T18:10:10.993Z,29.30
2023-02-07T18:12:38.036Z,29.40
2023-02-07T18:15:08.308Z,29.40
2023-02-07T18:17:36.154Z,29.50
2023-02-07T18:20:03.280Z,29.40
2023-02-07T18:22:29.947Z,29.40
2023-02-07T18:24:56.562Z,29.40
2023-02-07T18:27:23.134Z,29.50
2023-02-07T18:29:49.781Z,29.50
2023-02-07T18:32:17.132Z,29.40
2023-02-07T18:34:44.990Z,29.50
2023-02-07T18:37:11.590Z,29.50
2023-02-07T18:39:38.217Z,30.00
2023-02-07T18:42:04.878Z,29.60
2023-02-07T18:44:31.520Z,29.60
2023-02-07T18:46:58.138Z,29.50
2023-02-07T18:49:24.833Z,29.60
2023-02-07T18:51:51.414Z,29.50
2023-02-07T18:54:18.961Z,29.50
2023-02-07T18:56:52.055Z,29.50
2023-02-07T18:59:19.925Z,29.50
2023-02-07T19:01:48.144Z,29.50
2023-02-07T19:04:16.304Z,29.50
2023-02-07T19:06:44.374Z,29.50
2023-02-07T19:09:11.759Z,29.50
2023-02-07T19:11:40.161Z,29.60
2023-02-07T19:14:16.531Z,29.70
2023-02-07T19:16:43.712Z,30.20
2023-02-07T19:19:12.153Z,29.70
2023-02-07T19:21:39.148Z,29.70
2023-02-07T19:24:08.439Z,29.70
2023-02-07T19:26:35.495Z,29.70
2023-02-07T19:29:04.961Z,29.70
2023-02-07T19:31:31.846Z,29.70
2023-02-07T19:33:59.506Z,29.70
2023-02-07T19:36:27.131Z,29.70
2023-02-07T19:38:54.401Z,29.70
2023-02-07T19:41:25.989Z,29.80
2023-02-07T19:43:53.255Z,29.70
2023-02-07T19:46:20.502Z,29.70
2023-02-07T19:48:48.249Z,29.70
2023-02-07T19:51:20.516Z,29.70
2023-02-07T19:53:49.813Z,29.80
2023-02-07T19:56:16.926Z,29.80
2023-02-07T19:58:46.544Z,29.80
2023-02-07T20:01:13.899Z,29.80
2023-02-07T20:03:41.113Z,29.80
2023-02-07T20:06:12.331Z,29.90
2023-02-07T20:08:39.290Z,29.90
2023-02-07T20:11:10.953Z,30.00
2023-02-07T20:13:40.264Z,29.90
2023-02-07T20:16:09.390Z,29.90
2023-02-07T20:18:36.018Z,30.00
2023-02-07T20:21:11.392Z,30.00
2023-02-07T20:23:39.879Z,30.00
2023-02-07T20:26:15.235Z,30.10
2023-02-07T20:28:42.191Z,30.10
2023-02-07T20:31:11.113Z,30.00
2023-02-07T20:33:39.807Z,30.00
2023-02-07T20:36:07.803Z,30.10
2023-02-07T20:38:34.422Z,30.20
2023-02-07T20:41:10.028Z,30.20
2023-02-07T20:43:37.072Z,30.30
2023-02-07T20:46:16.246Z,30.30
2023-02-07T20:48:43.222Z,30.40
2023-02-07T20:51:10.596Z,30.20
2023-02-07T20:53:42.578Z,30.30
2023-02-07T20:56:12.885Z,30.40
2023-02-07T20:58:40.409Z,30.40
2023-02-07T21:01:09.987Z,30.40
2023-02-07T21:03:37.162Z,30.50
2023-02-07T21:06:04.252Z,30.60
2023-02-07T21:08:31.101Z,30.50
2023-02-07T21:10:57.809Z,30.60
2023-02-07T21:13:24.800Z,30.60
2023-02-07T21:16:07.432Z,30.70
2023-02-07T21:18:35.107Z,30.70
2023-02-07T21:21:06.974Z,30.70
2023-02-07T21:23:34.121Z,30.80
2023-02-07T21:26:06.393Z,30.70
2023-02-07T21:28:34.112Z,30.90
2023-02-07T21:31:13.152Z,30.90
2023-02-07T21:33:39.804Z,30.80
2023-02-07T21:36:27.292Z,30.80
2023-02-07T21:38:55.009Z,30.90
2023-02-07T21:41:24.495Z,30.90
2023-02-07T21:43:51.456Z,30.90
2023-02-07T21:46:22.660Z,30.90
2023-02-07T21:48:51.594Z,30.90
2023-02-07T21:51:23.794Z,30.90
2023-02-07T21:53:52.066Z,31.00
2023-02-07T21:56:25.067Z,31.00
2023-02-07T21:58:57.466Z,31.00
2023-02-07T22:01:24.729Z,31.00
2023-02-07T22:03:53.958Z,31.00
2023-02-07T22:06:22.121Z,31.00
2023-02-07T22:08:56.046Z,31.00
2023-02-07T22:11:24.504Z,31.10
2023-02-07T22:13:52.598Z,31.10
2023-02-07T22:16:21.765Z,31.00
2023-02-07T22:18:48.723Z,31.00
2023-02-07T22:21:21.656Z,31.10
2023-02-07T22:23:48.431Z,31.10
2023-02-07T22:26:15.294Z,31.10
2023-02-07T22:28:42.022Z,31.00
2023-02-07T22:31:14.674Z,31.20
2023-02-07T22:33:41.850Z,31.50
2023-02-07T22:36:16.662Z,31.10
2023-02-07T22:38:43.310Z,31.10
2023-02-07T22:41:10.177Z,31.10
2023-02-07T22:43:38.686Z,31.10
2023-02-07T22:46:07.238Z,31.10
2023-02-07T22:48:34.209Z,31.10
2023-02-07T22:51:14.335Z,31.10
2023-02-07T22:53:41.589Z,31.20
2023-02-07T22:56:08.840Z,31.20
2023-02-07T22:58:36.262Z,31.10
2023-02-07T23:01:03.442Z,31.20
2023-02-07T23:03:30.058Z,31.20
2023-02-07T23:05:56.855Z,31.20
2023-02-07T23:08:23.499Z,31.20
2023-02-07T23:10:50.105Z,31.20
2023-02-07T23:13:16.892Z,31.20
2023-02-07T23:15:47.642Z,31.20
2023-02-07T23:18:15.553Z,31.20
2023-02-07T23:20:44.370Z,31.20
2023-02-07T23:23:12.588Z,31.20
2023-02-07T23:25:44.369Z,31.20
2023-02-07T23:28:11.890Z,31.30
2023-02-07T23:30:39.940Z,31.30
2023-02-07T23:33:08.293Z,31.20
2023-02-07T23:35:34.920Z,32.00
2023-02-07T23:38:01.754Z,31.30
2023-02-07T23:40:28.868Z,31.30
2023-02-07T23:42:55.978Z,31.30
2023-02-07T23:45:22.604Z,31.30
2023-02-07T23:47:49.193Z,31.30
2023-02-07T23:50:15.787Z,31.30
2023-02-07T23:52:42.329Z,31.40
2023-02-07T23:55:09.000Z,31.30
2023-02-07T23:57:35.589Z,31.30
